Time;durP1;ratioP1;P1;durP2;ratioP2;P2;SDS_P1;SDS_P2;PMS_P1;PMS_P2;Temp;Humidity;BMP_temperature;BMP_pressure;BME280_temperature;BME280_humidity;BME280_pressure;Samples;Min_cycle;Max_cycle;Signal;HPM_P1;HPM_P2
2021/08/12 00:01:55;;;;;;;;;;;18.80;72.00;;;;;;5076428;28;20032;-77
2021/08/12 00:04:21;;;;;;;1.00;0.70;;;18.80;72.00;;;;;;5076110;28;20363;-77
2021/08/12 00:06:47;;;;;;;1.00;0.77;;;18.70;72.20;;;;;;5076069;28;20499;-77
2021/08/12 00:09:13;;;;;;;0.80;0.60;;;18.80;71.80;;;;;;5060597;28;20025;-77
2021/08/12 00:11:39;;;;;;;0.88;0.68;;;18.80;71.60;;;;;;5055908;28;20036;-77
2021/08/12 00:14:05;;;;;;;0.90;0.60;;;18.80;71.90;;;;;;5055853;28;20483;-77
2021/08/12 00:16:32;;;;;;;2.15;0.70;;;18.80;71.90;;;;;;5067995;28;20025;-76
2021/08/12 00:18:58;;;;;;;0.82;0.70;;;18.80;71.60;;;;;;5075755;28;20103;-77
2021/08/12 00:21:24;;;;;;;0.90;0.80;;;18.80;72.00;;;;;;5075842;28;20063;-77
2021/08/12 00:23:51;;;;;;;1.30;0.90;;;18.70;71.90;;;;;;5075247;28;20032;-77
2021/08/12 00:26:17;;;;;;;1.38;0.70;;;18.70;71.90;;;;;;5070735;28;20032;-77
2021/08/12 00:28:43;;;;;;;1.20;0.90;;;18.70;72.00;;;;;;5054631;28;20093;-77
2021/08/12 00:31:08;;;;;;;0.95;0.85;;;18.60;72.00;;;;;;5055673;28;20036;-77
2021/08/12 00:33:37;;;;;;;1.00;0.70;;;18.70;71.70;;;;;;5054105;28;20028;-77
2021/08/12 00:36:02;;;;;;;0.90;0.68;;;18.70;71.90;;;;;;5064842;28;20028;-77
2021/08/12 00:38:28;;;;;;;0.80;0.60;;;18.60;71.80;;;;;;5075058;28;20028;-77
2021/08/12 00:40:54;;;;;;;0.70;0.52;;;18.50;72.20;;;;;;5069980;28;20390;-77
2021/08/12 00:43:21;;;;;;;0.77;0.60;;;18.50;72.50;;;;;;5075541;28;20052;-76
2021/08/12 00:45:46;;;;;;;1.20;0.77;;;18.40;72.50;;;;;;5074441;28;20020;-77
2021/08/12 00:48:12;;;;;;;0.90;0.70;;;18.30;72.90;;;;;;5061183;28;20059;-77
2021/08/12 00:50:45;;;;;;;1.00;0.60;;;18.30;72.70;;;;;;5055214;28;20037;-77
2021/08/12 00:53:12;;;;;;;0.90;0.65;;;18.30;72.60;;;;;;5055330;28;20372;-77
2021/08/12 00:55:43;;;;;;;0.98;0.55;;;18.40;72.50;;;;;;5055402;28;20033;-77
2021/08/12 00:58:10;;;;;;;1.00;0.80;;;18.40;72.50;;;;;;5055352;28;20021;-77
2021/08/12 01:00:36;;;;;;;1.00;0.63;;;18.30;72.30;;;;;;5055094;28;20053;-77
2021/08/12 01:03:07;;;;;;;0.88;0.70;;;18.30;72.50;;;;;;5055209;28;20069;-77
2021/08/12 01:05:34;;;;;;;1.10;0.68;;;18.30;72.80;;;;;;5055198;28;20028;-77
2021/08/12 01:08:12;;;;;;;0.70;0.60;;;18.30;72.80;;;;;;5055199;28;20488;-77
2021/08/12 01:10:46;;;;;;;1.52;0.70;;;18.20;72.80;;;;;;5073821;28;20494;-77
2021/08/12 01:13:35;;;;;;;1.77;0.77;;;18.10;72.80;;;;;;5075095;28;20032;-76
2021/08/12 01:16:04;;;;;;;0.95;0.70;;;18.10;73.10;;;;;;5072547;28;20116;-77
2021/08/12 01:19:10;;;;;;;1.45;0.90;;;18.10;72.80;;;;;;5075210;28;20032;-77
2021/08/12 01:21:57;;;;;;;1.27;0.88;;;18.10;72.70;;;;;;5019256;28;20068;-77
2021/08/12 01:24:26;;;;;;;0.90;0.60;;;18.10;72.80;;;;;;5066430;28;20029;-77
2021/08/12 01:26:57;;;;;;;1.02;0.70;;;18.20;72.60;;;;;;5055019;28;20559;-77
2021/08/12 01:29:31;;;;;;;0.90;0.70;;;18.10;72.60;;;;;;5054840;28;20028;-77
2021/08/12 01:32:06;;;;;;;0.98;0.73;;;18.10;72.60;;;;;;5070343;28;20029;-77
2021/08/12 01:34:54;;;;;;;0.85;0.63;;;18.10;72.60;;;;;;5054695;28;20108;-77
2021/08/12 01:37:21;;;;;;;1.42;0.77;;;18.00;72.80;;;;;;5054949;28;20025;-76
2021/08/12 01:39:49;;;;;;;0.90;0.73;;;18.00;73.00;;;;;;5054968;28;20380;-77
2021/08/12 01:42:16;;;;;;;0.90;0.70;;;17.90;72.90;;;;;;5073488;28;20031;-78
2021/08/12 01:44:43;;;;;;;0.90;0.70;;;17.90;73.30;;;;;;5054766;28;20119;-78
2021/08/12 01:47:10;;;;;;;0.88;0.70;;;17.80;73.80;;;;;;5054839;28;20029;-78
2021/08/12 01:49:39;;;;;;;0.90;0.68;;;17.80;73.70;;;;;;5057904;28;20040;-78
2021/08/12 01:52:06;;;;;;;0.85;0.70;;;17.80;73.60;;;;;;5058447;28;20483;-78
2021/08/12 01:54:34;;;;;;;1.10;0.80;;;17.80;73.30;;;;;;5058463;28;20021;-78
2021/08/12 01:57:00;;;;;;;1.23;0.82;;;17.90;73.20;;;;;;5058280;28;20048;-78
2021/08/12 01:59:27;;;;;;;0.82;0.63;;;17.90;72.90;;;;;;5061106;28;20025;-78
2021/08/12 02:01:53;;;;;;;0.90;0.70;;;17.90;72.70;;;;;;5078369;28;20483;-78
2021/08/12 02:04:39;;;;;;;1.00;0.82;;;17.80;73.00;;;;;;5071680;28;20050;-78
2021/08/12 02:07:06;;;;;;;0.80;0.70;;;17.80;73.40;;;;;;5057308;28;20033;-78
2021/08/12 02:09:34;;;;;;;1.35;0.80;;;17.70;74.00;;;;;;5058076;28;20064;-78
2021/08/12 02:12:02;;;;;;;1.38;0.70;;;17.70;73.90;;;;;;5058238;28;20029;-78
2021/08/12 02:14:30;;;;;;;1.52;0.75;;;17.70;74.10;;;;;;5058015;28;20014;-78
2021/08/12 02:16:56;;;;;;;0.95;0.75;;;17.70;74.00;;;;;;5057899;28;20029;-78
2021/08/12 02:19:21;;;;;;;1.00;0.90;;;17.70;74.30;;;;;;5068823;28;20095;-78
2021/08/12 02:22:17;;;;;;;0.98;0.73;;;17.70;74.30;;;;;;5078102;28;20136;-78
2021/08/12 02:24:51;;;;;;;1.05;0.82;;;17.70;74.20;;;;;;5060290;28;20095;-79
2021/08/12 02:27:28;;;;;;;0.90;0.77;;;17.70;73.90;;;;;;5057968;28;20033;-78
2021/08/12 02:29:55;;;;;;;1.98;0.90;;;17.70;73.80;;;;;;5061850;28;20023;-78
2021/08/12 02:32:25;;;;;;;0.95;0.70;;;17.70;73.80;;;;;;5077693;28;20056;-78
2021/08/12 02:34:53;;;;;;;1.00;0.80;;;17.70;74.10;;;;;;5077714;28;20044;-78
2021/08/12 02:37:19;;;;;;;1.08;0.80;;;17.70;74.30;;;;;;5076432;28;20432;-78
2021/08/12 02:39:46;;;;;;;1.48;0.80;;;17.70;74.50;;;;;;5063288;28;20053;-78
2021/08/12 02:42:13;;;;;;;1.02;0.82;;;17.70;74.20;;;;;;5076620;28;20042;-78
2021/08/12 02:44:42;;;;;;;0.90;0.77;;;17.70;74.30;;;;;;5076105;28;20087;-78
2021/08/12 02:47:09;;;;;;;0.90;0.73;;;17.70;74.40;;;;;;5057466;28;20040;-78
2021/08/12 02:49:38;;;;;;;1.05;0.80;;;17.80;74.10;;;;;;5057721;28;20268;-78
2021/08/12 02:52:06;;;;;;;1.00;0.80;;;17.80;73.80;;;;;;5057339;28;20049;-78
2021/08/12 02:54:32;;;;;;;1.10;0.75;;;17.80;73.50;;;;;;5063039;28;20032;-78
2021/08/12 02:56:58;;;;;;;1.83;0.80;;;17.90;73.50;;;;;;5077351;28;20031;-78
2021/08/12 02:59:25;;;;;;;0.90;0.75;;;17.80;73.40;;;;;;5076988;28;20017;-78
2021/08/12 03:01:55;;;;;;;1.10;0.88;;;17.80;73.50;;;;;;5072431;28;20059;-78
2021/08/12 03:04:22;;;;;;;1.13;0.80;;;17.80;73.60;;;;;;5057295;28;20083;-78
2021/08/12 03:06:56;;;;;;;1.30;0.80;;;17.80;73.90;;;;;;5055771;28;20399;-78
2021/08/12 03:09:24;;;;;;;0.98;0.70;;;17.70;74.20;;;;;;5065084;28;20131;-78
2021/08/12 03:11:52;;;;;;;1.00;0.73;;;17.70;74.10;;;;;;5077088;28;20025;-78
2021/08/12 03:14:19;;;;;;;1.13;0.88;;;17.70;74.20;;;;;;5077119;28;20056;-78
2021/08/12 03:16:45;;;;;;;1.00;0.88;;;17.70;74.40;;;;;;5071160;28;20028;-78
2021/08/12 03:19:11;;;;;;;1.15;1.00;;;17.70;75.10;;;;;;5055607;28;20131;-78
2021/08/12 03:21:36;;;;;;;1.00;0.90;;;17.70;75.30;;;;;;5057185;28;20494;-78
2021/08/12 03:24:12;;;;;;;1.10;0.88;;;17.60;75.30;;;;;;5056791;28;20055;-78
2021/08/12 03:26:37;;;;;;;1.10;0.88;;;17.70;75.10;;;;;;5056919;28;20107;-78
2021/08/12 03:29:03;;;;;;;0.95;0.60;;;17.70;75.30;;;;;;5056781;28;20025;-78
2021/08/12 03:31:28;;;;;;;1.10;0.80;;;17.80;75.20;;;;;;5056639;28;20021;-78
2021/08/12 03:33:54;;;;;;;1.00;0.82;;;17.70;75.20;;;;;;5056381;28;20059;-78
2021/08/12 03:36:21;;;;;;;1.50;0.80;;;17.80;75.10;;;;;;5055523;28;20483;-78
2021/08/12 03:38:46;;;;;;;0.90;0.70;;;17.80;74.80;;;;;;5056824;28;20033;-78
2021/08/12 03:41:32;;;;;;;1.27;0.80;;;17.90;75.00;;;;;;5060718;28;20083;-77
2021/08/12 03:43:58;;;;;;;1.00;0.90;;;17.90;74.80;;;;;;5056468;28;20397;-78
2021/08/12 03:46:24;;;;;;;1.10;0.80;;;18.00;75.00;;;;;;5055062;28;20025;-78
2021/08/12 03:48:49;;;;;;;1.05;0.88;;;18.00;74.80;;;;;;5056252;28;20407;-78
2021/08/12 03:51:15;;;;;;;1.40;1.00;;;18.00;74.40;;;;;;5058522;28;20525;-78
2021/08/12 03:53:41;;;;;;;1.20;0.70;;;17.90;74.50;;;;;;5065123;28;20064;-78
2021/08/12 03:56:06;;;;;;;0.95;0.70;;;17.90;74.20;;;;;;5056255;28;20103;-78
2021/08/12 03:58:32;;;;;;;1.38;1.00;;;17.90;74.20;;;;;;5056295;28;20043;-78
2021/08/12 04:00:58;;;;;;;1.10;0.85;;;17.80;74.10;;;;;;5055980;28;20029;-78
2021/08/12 04:03:24;;;;;;;1.48;1.00;;;17.90;74.30;;;;;;5056018;28;20036;-78
2021/08/12 04:05:50;;;;;;;1.00;0.80;;;17.80;74.50;;;;;;5055996;28;20039;-78
2021/08/12 04:08:16;;;;;;;0.80;0.60;;;17.80;74.50;;;;;;5056057;28;20076;-78
2021/08/12 04:10:42;;;;;;;1.00;0.80;;;17.80;74.50;;;;;;5056181;28;20013;-78
2021/08/12 04:13:08;;;;;;;0.88;0.73;;;17.80;74.60;;;;;;5055251;28;20041;-78
2021/08/12 04:15:34;;;;;;;1.27;0.75;;;17.80;74.60;;;;;;5054811;28;20021;-78
2021/08/12 04:18:00;;;;;;;1.30;0.80;;;17.80;74.50;;;;;;5054678;28;20378;-78
2021/08/12 04:20:25;;;;;;;1.40;0.98;;;17.70;74.70;;;;;;5059051;28;20016;-78
2021/08/12 04:22:51;;;;;;;0.90;0.75;;;17.70;74.70;;;;;;5075852;28;20032;-78
2021/08/12 04:25:17;;;;;;;1.05;0.90;;;17.70;74.90;;;;;;5076075;28;20029;-78
2021/08/12 04:27:42;;;;;;;1.08;0.85;;;17.70;74.60;;;;;;5057728;28;20032;-78
2021/08/12 04:30:09;;;;;;;1.20;0.80;;;17.60;75.00;;;;;;5055631;28;20044;-79
2021/08/12 04:32:37;;;;;;;0.93;0.80;;;17.60;74.80;;;;;;5054468;28;20036;-78
2021/08/12 04:35:07;;;;;;;1.15;0.90;;;17.60;74.90;;;;;;5060348;28;20025;-78
2021/08/12 04:37:44;;;;;;;1.25;1.02;;;17.40;75.30;;;;;;5075662;28;20021;-78
2021/08/12 04:40:18;;;;;;;1.10;0.90;;;17.40;75.40;;;;;;5072859;28;20024;-78
2021/08/12 04:42:47;;;;;;;1.10;0.80;;;17.40;75.30;;;;;;5075445;28;20052;-78
2021/08/12 04:45:13;;;;;;;1.50;1.00;;;17.40;75.50;;;;;;5075666;28;20017;-78
2021/08/12 04:47:39;;;;;;;1.00;0.90;;;17.40;75.20;;;;;;5061515;28;20068;-78
2021/08/12 04:50:08;;;;;;;1.00;0.88;;;17.40;75.30;;;;;;5055476;28;20024;-78
2021/08/12 04:52:34;;;;;;;1.20;1.00;;;17.40;75.10;;;;;;5055487;28;20036;-78
2021/08/12 04:55:00;;;;;;;1.40;1.00;;;17.30;75.50;;;;;;5070407;28;20278;-78
2021/08/12 04:57:26;;;;;;;2.08;0.90;;;17.30;75.50;;;;;;5075477;28;20033;-78
2021/08/12 04:59:52;;;;;;;1.20;0.88;;;17.20;75.30;;;;;;5061206;28;20078;-78
2021/08/12 05:02:18;;;;;;;1.00;0.85;;;17.20;75.60;;;;;;5055223;28;20025;-78
2021/08/12 05:04:44;;;;;;;1.00;0.90;;;17.20;75.50;;;;;;5055153;28;20531;-78
2021/08/12 05:07:09;;;;;;;1.27;0.98;;;17.20;75.60;;;;;;5055574;28;20122;-78
2021/08/12 05:09:36;;;;;;;1.00;0.77;;;17.20;75.80;;;;;;5055297;28;20036;-78
2021/08/12 05:12:02;;;;;;;1.70;1.17;;;17.10;76.00;;;;;;5055057;28;20455;-78
2021/08/12 05:14:28;;;;;;;1.10;0.90;;;17.10;76.00;;;;;;5055650;28;20025;-78
2021/08/12 05:16:53;;;;;;;1.05;0.90;;;17.10;75.90;;;;;;5053607;28;20084;-78
2021/08/12 05:19:19;;;;;;;1.13;0.90;;;17.10;76.20;;;;;;5055193;28;20119;-78
2021/08/12 05:21:45;;;;;;;1.58;1.00;;;17.00;76.10;;;;;;5055205;28;20120;-78
2021/08/12 05:24:11;;;;;;;1.30;1.10;;;17.10;76.50;;;;;;5057844;28;20036;-78
2021/08/12 05:26:37;;;;;;;1.35;1.10;;;17.10;76.10;;;;;;5058994;28;20032;-78
2021/08/12 05:29:03;;;;;;;1.50;1.00;;;17.10;76.30;;;;;;5059032;28;20029;-78
2021/08/12 05:31:28;;;;;;;1.10;1.00;;;17.10;76.40;;;;;;5058907;28;20108;-78
2021/08/12 05:33:54;;;;;;;1.20;1.00;;;17.00;76.80;;;;;;5057262;28;20029;-78
2021/08/12 05:36:20;;;;;;;1.10;0.93;;;17.10;76.80;;;;;;5058908;28;20100;-78
2021/08/12 05:38:45;;;;;;;1.20;0.93;;;17.20;76.50;;;;;;5057485;28;20025;-78
2021/08/12 05:41:12;;;;;;;1.20;1.00;;;17.30;76.20;;;;;;5069529;28;20095;-78
2021/08/12 05:43:38;;;;;;;1.67;1.00;;;17.30;76.10;;;;;;5059137;28;20511;-78
2021/08/12 05:46:04;;;;;;;1.05;0.88;;;17.30;76.10;;;;;;5058690;28;20079;-78
2021/08/12 05:48:29;;;;;;;1.58;1.00;;;17.30;76.00;;;;;;5058729;28;20025;-78
2021/08/12 05:50:55;;;;;;;1.13;1.00;;;17.40;75.80;;;;;;5058483;28;20076;-78
2021/08/12 05:53:21;;;;;;;1.55;0.90;;;17.50;75.80;;;;;;5058768;28;20025;-77
2021/08/12 05:55:48;;;;;;;1.20;1.00;;;17.60;75.30;;;;;;5058496;28;20025;-78
2021/08/12 05:58:14;;;;;;;0.95;0.75;;;17.60;75.30;;;;;;5058492;28;20025;-78
2021/08/12 06:00:40;;;;;;;1.08;0.90;;;17.70;75.30;;;;;;5058330;28;20036;-78
2021/08/12 06:03:10;;;;;;;1.38;0.90;;;17.70;75.40;;;;;;5058327;28;20033;-78
2021/08/12 06:05:36;;;;;;;1.17;0.90;;;17.80;75.10;;;;;;5058168;28;20383;-78
2021/08/12 06:08:04;;;;;;;1.10;0.95;;;17.80;75.50;;;;;;5058238;28;20040;-77
2021/08/12 06:10:30;;;;;;;1.00;0.80;;;17.80;75.10;;;;;;5058223;28;20028;-78
2021/08/12 06:12:56;;;;;;;1.20;1.02;;;17.80;75.50;;;;;;5056950;28;20033;-78
2021/08/12 06:15:26;;;;;;;1.23;1.00;;;17.80;75.30;;;;;;5073049;28;20021;-77
2021/08/12 06:17:52;;;;;;;1.80;1.00;;;17.80;75.40;;;;;;5072788;28;20027;-78
2021/08/12 06:20:19;;;;;;;1.35;1.00;;;17.70;76.20;;;;;;5057997;28;20060;-77
2021/08/12 06:22:46;;;;;;;1.17;0.98;;;17.80;75.80;;;;;;5058035;28;20047;-78
2021/08/12 06:25:12;;;;;;;1.15;0.95;;;17.90;75.40;;;;;;5058002;28;20021;-78
2021/08/12 06:27:39;;;;;;;1.40;0.98;;;18.10;75.00;;;;;;5056662;28;20064;-77
2021/08/12 06:30:06;;;;;;;1.42;1.00;;;18.20;74.70;;;;;;5057889;28;20024;-78
2021/08/12 06:32:32;;;;;;;1.10;0.90;;;18.30;74.20;;;;;;5071499;28;20560;-77
2021/08/12 06:34:58;;;;;;;1.30;1.00;;;18.40;74.00;;;;;;5076811;28;20166;-78
2021/08/12 06:37:24;;;;;;;1.48;1.17;;;18.50;74.20;;;;;;5058719;28;20104;-78
2021/08/12 06:39:50;;;;;;;1.27;0.90;;;18.50;74.10;;;;;;5057687;28;20059;-78
2021/08/12 06:42:16;;;;;;;1.10;0.80;;;18.50;74.00;;;;;;5077224;28;20028;-78
2021/08/12 06:44:42;;;;;;;1.77;1.00;;;18.60;74.10;;;;;;5060258;28;20385;-78
2021/08/12 06:47:09;;;;;;;1.60;0.98;;;18.80;74.00;;;;;;5057639;28;20102;-78
2021/08/12 06:49:34;;;;;;;1.20;1.00;;;18.90;73.70;;;;;;5057635;28;20033;-77
2021/08/12 06:52:00;;;;;;;1.38;0.90;;;19.20;73.60;;;;;;5057345;28;20035;-78
2021/08/12 06:54:26;;;;;;;1.75;1.00;;;19.30;72.60;;;;;;5057448;28;20100;-78
2021/08/12 06:56:51;;;;;;;1.10;0.80;;;19.60;72.40;;;;;;5057284;28;20056;-78
2021/08/12 06:59:17;;;;;;;1.30;0.70;;;19.90;71.60;;;;;;5057270;28;20082;-78
2021/08/12 07:01:43;;;;;;;1.00;0.75;;;20.20;71.00;;;;;;5056109;28;20083;-78
2021/08/12 07:04:09;;;;;;;0.93;0.60;;;20.30;70.60;;;;;;5057543;28;20108;-78
2021/08/12 07:06:38;;;;;;;0.77;0.60;;;20.40;69.90;;;;;;5057192;28;20037;-78
2021/08/12 07:09:04;;;;;;;0.90;0.70;;;20.30;70.30;;;;;;5057210;28;20648;-78
2021/08/12 07:11:29;;;;;;;1.38;0.60;;;20.30;70.40;;;;;;5057386;28;20051;-78
2021/08/12 07:13:55;;;;;;;1.70;0.70;;;20.20;70.60;;;;;;5057849;28;20019;-78
2021/08/12 07:16:21;;;;;;;0.85;0.60;;;20.30;71.00;;;;;;5076910;28;20053;-78
2021/08/12 07:18:46;;;;;;;0.70;0.60;;;20.30;70.90;;;;;;5064769;28;20029;-78
2021/08/12 07:21:16;;;;;;;0.90;0.68;;;20.30;71.10;;;;;;5056971;28;20043;-78
2021/08/12 07:23:42;;;;;;;;;;;20.30;70.90;;;;;;5057368;28;20017;-78
2021/08/12 07:26:12;;;;;;;0.95;0.70;;;20.40;70.90;;;;;;5056873;28;19955;-78
2021/08/12 07:28:38;;;;;;;;;;;20.50;70.50;;;;;;5056992;28;20029;-78
2021/08/12 07:31:04;;;;;;;0.60;0.45;;;20.60;70.40;;;;;;5056693;28;19909;-78
2021/08/12 07:33:29;;;;;;;0.80;0.50;;;20.80;70.50;;;;;;5056865;28;20129;-78
2021/08/12 07:35:55;;;;;;;1.00;0.60;;;20.90;70.40;;;;;;5056883;28;20074;-78
2021/08/12 07:38:21;;;;;;;1.13;0.50;;;21.00;70.20;;;;;;5073306;28;20021;-78
2021/08/12 07:40:46;;;;;;;1.23;0.70;;;21.10;70.00;;;;;;5072645;28;20085;-78
2021/08/12 07:43:12;;;;;;;0.82;0.60;;;21.20;70.50;;;;;;5071675;28;20076;-78
2021/08/12 07:45:38;;;;;;;1.25;0.47;;;21.40;69.40;;;;;;5056350;28;20470;-78
2021/08/12 07:48:03;;;;;;;1.65;0.60;;;21.70;68.70;;;;;;5056199;28;20034;-78
2021/08/12 07:50:29;;;;;;;0.70;0.40;;;21.60;68.20;;;;;;5056437;28;20044;-78
2021/08/12 07:52:55;;;;;;;0.90;0.55;;;21.50;68.30;;;;;;5056239;28;20094;-78
2021/08/12 07:55:21;;;;;;;1.00;0.52;;;21.50;68.80;;;;;;5056338;28;20025;-78
2021/08/12 07:57:48;;;;;;;1.77;1.20;;;21.30;68.80;;;;;;5054803;28;20025;-78
2021/08/12 08:00:14;;;;;;;0.90;0.60;;;21.30;69.10;;;;;;5056227;28;20025;-78
2021/08/12 08:02:48;;;;;;;0.90;0.70;;;21.20;69.50;;;;;;5056168;28;20029;-78
2021/08/12 08:05:19;;;;;;;0.90;0.50;;;21.10;70.00;;;;;;5067630;28;20434;-78
2021/08/12 08:07:46;;;;;;;0.60;0.47;;;21.10;70.20;;;;;;5076104;28;20035;-78
2021/08/12 08:10:12;;;;;;;0.80;0.50;;;21.00;70.00;;;;;;5076086;28;20035;-78
2021/08/12 08:12:39;;;;;;;1.42;0.80;;;20.90;70.40;;;;;;5058450;28;20031;-78
2021/08/12 08:15:05;;;;;;;0.80;0.55;;;21.00;70.40;;;;;;5055920;28;20503;-78
2021/08/12 08:17:30;;;;;;;0.73;0.60;;;21.00;70.30;;;;;;5055876;28;20521;-78
2021/08/12 08:19:57;;;;;;;1.00;0.63;;;21.00;70.10;;;;;;5055644;28;20068;-78
2021/08/12 08:22:24;;;;;;;1.63;0.55;;;21.10;69.90;;;;;;5056064;28;20068;-78
2021/08/12 08:24:50;;;;;;;1.13;0.60;;;21.10;69.90;;;;;;5055833;28;20503;-78
2021/08/12 08:27:16;;;;;;;0.90;0.52;;;21.30;70.10;;;;;;5062079;28;20021;-78
2021/08/12 08:29:41;;;;;;;1.48;1.02;;;21.30;69.60;;;;;;5075705;28;20039;-78
2021/08/12 08:32:08;;;;;;;1.17;0.85;;;21.50;69.50;;;;;;5075535;28;20112;-78
2021/08/12 08:34:34;;;;;;;2.53;1.10;;;21.60;69.50;;;;;;5071538;28;20045;-78
2021/08/12 08:36:59;;;;;;;1.10;0.70;;;21.70;69.00;;;;;;5055492;28;20043;-78
2021/08/12 08:39:25;;;;;;;1.42;0.70;;;21.80;68.40;;;;;;5055577;28;20116;-78
2021/08/12 08:41:52;;;;;;;1.20;0.70;;;22.00;68.30;;;;;;5070507;28;20048;-78
2021/08/12 08:44:20;;;;;;;0.90;0.57;;;22.00;68.20;;;;;;5075317;28;20059;-78
2021/08/12 08:46:47;;;;;;;2.13;0.80;;;22.20;67.80;;;;;;5075491;28;20048;-78
2021/08/12 08:49:17;;;;;;;1.40;0.90;;;22.40;67.10;;;;;;5073412;28;20028;-78
2021/08/12 08:51:43;;;;;;;1.13;0.82;;;22.70;66.10;;;;;;5075461;28;20020;-78
2021/08/12 08:54:11;;;;;;;0.80;0.60;;;23.60;64.60;;;;;;5074761;28;20108;-78
2021/08/12 08:56:40;;;;;;;1.38;0.70;;;23.80;63.20;;;;;;5075203;28;20027;-78
2021/08/12 08:59:07;;;;;;;0.50;0.40;;;23.70;62.60;;;;;;5074783;28;20024;-78
2021/08/12 09:01:35;;;;;;;0.90;0.50;;;23.70;63.00;;;;;;5075407;28;20498;-78
2021/08/12 09:04:01;;;;;;;0.93;0.43;;;23.70;62.60;;;;;;5070622;28;20032;-78
2021/08/12 09:06:27;;;;;;;0.57;0.32;;;23.80;62.40;;;;;;5055374;28;20061;-78
2021/08/12 09:08:55;;;;;;;0.63;0.40;;;23.80;62.30;;;;;;5055146;28;20032;-78
2021/08/12 09:11:21;;;;;;;0.70;0.50;;;23.90;61.90;;;;;;5055187;28;20037;-78
2021/08/12 09:13:47;;;;;;;0.55;0.32;;;23.80;62.10;;;;;;5055159;28;20025;-78
2021/08/12 09:16:34;;;;;;;0.93;0.50;;;23.70;62.30;;;;;;5055267;28;20032;-78
2021/08/12 09:19:24;;;;;;;0.75;0.50;;;23.70;63.00;;;;;;5055168;28;20146;-78
2021/08/12 09:21:52;;;;;;;1.08;0.50;;;23.80;62.10;;;;;;5064397;28;20107;-78
2021/08/12 09:24:18;;;;;;;0.88;0.60;;;23.90;61.60;;;;;;5075223;28;20021;-78
2021/08/12 09:26:44;;;;;;;1.27;0.70;;;24.00;60.50;;;;;;5075127;28;20629;-78
2021/08/12 09:29:11;;;;;;;1.08;0.57;;;25.70;57.30;;;;;;5061313;28;20108;-76
2021/08/12 09:32:02;;;;;;;0.90;0.50;;;27.50;55.00;;;;;;5054709;28;20025;-77
2021/08/12 09:34:41;;;;;;;0.90;0.45;;;28.60;50.00;;;;;;5054962;28;20203;-77
2021/08/12 09:37:07;;;;;;;;;;;28.80;50.50;;;;;;5060614;28;20035;-77
2021/08/12 09:39:34;;;;;;;0.75;0.50;;;29.00;49.30;;;;;;5055125;28;20000;-76
2021/08/12 09:42:00;;;;;;;0.70;0.40;;;30.20;47.10;;;;;;5072496;28;20029;-77
2021/08/12 09:44:51;;;;;;;0.80;0.47;;;31.40;45.50;;;;;;5074819;28;20057;-76
2021/08/12 09:47:19;;;;;;;0.73;0.43;;;32.40;41.80;;;;;;5069300;28;20044;-77
2021/08/12 09:49:48;;;;;;;1.27;0.40;;;32.90;39.80;;;;;;5053483;28;20483;-76
2021/08/12 09:52:32;;;;;;;0.55;0.30;;;33.10;41.00;;;;;;5054617;28;20032;-77
2021/08/12 09:55:04;;;;;;;0.70;0.40;;;33.10;38.80;;;;;;5054844;28;20032;-77
2021/08/12 09:57:35;;;;;;;0.60;0.40;;;33.30;39.90;;;;;;5054776;28;20078;-77
2021/08/12 10:00:01;;;;;;;1.13;0.50;;;33.60;37.00;;;;;;5067661;28;20024;-77
2021/08/12 10:02:30;;;;;;;1.55;0.43;;;33.40;39.40;;;;;;5074709;28;20097;-77
2021/08/12 10:05:05;;;;;;;0.65;0.40;;;33.30;38.60;;;;;;5074711;28;20025;-77
2021/08/12 10:07:39;;;;;;;0.55;0.40;;;33.30;38.10;;;;;;5054809;28;20032;-77
2021/08/12 10:10:09;;;;;;;0.70;0.35;;;33.30;38.20;;;;;;5055499;28;20033;-77
2021/08/12 10:12:34;;;;;;;0.52;0.32;;;33.40;38.60;;;;;;5058050;28;20025;-77
2021/08/12 10:15:00;;;;;;;0.60;0.40;;;33.60;38.00;;;;;;5058189;28;20031;-77
2021/08/12 10:17:26;;;;;;;0.70;0.40;;;34.10;38.40;;;;;;5073460;28;20055;-77
2021/08/12 10:19:52;;;;;;;0.80;0.40;;;34.20;38.40;;;;;;5058002;28;20476;-77
2021/08/12 10:22:18;;;;;;;0.73;0.45;;;33.80;37.60;;;;;;5058161;28;20036;-77
2021/08/12 10:24:45;;;;;;;0.70;0.47;;;33.00;39.20;;;;;;5058048;28;20033;-77
2021/08/12 10:27:13;;;;;;;1.10;0.40;;;33.20;38.00;;;;;;5057696;28;20126;-77
2021/08/12 10:29:42;;;;;;;0.70;0.40;;;32.70;39.70;;;;;;5057924;28;20033;-77
2021/08/12 10:32:10;;;;;;;0.95;0.50;;;32.20;40.00;;;;;;5057756;28;20112;-77
2021/08/12 10:34:36;;;;;;;1.95;0.30;;;32.20;41.10;;;;;;5070812;28;20120;-77
2021/08/12 10:37:02;;;;;;;1.50;0.40;;;31.70;43.00;;;;;;5077846;28;20610;-77
2021/08/12 10:39:29;;;;;;;1.23;0.40;;;31.30;43.00;;;;;;5077710;28;20032;-76
2021/08/12 10:41:54;;;;;;;0.73;0.43;;;30.90;43.00;;;;;;5075765;28;20024;-76
2021/08/12 10:44:21;;;;;;;0.80;0.47;;;30.60;44.90;;;;;;5057539;28;20140;-76
2021/08/12 10:46:46;;;;;;;0.73;0.40;;;30.20;44.20;;;;;;5057601;28;20876;-76
2021/08/12 10:49:32;;;;;;;0.80;0.40;;;29.60;46.10;;;;;;5057368;28;20021;-76
2021/08/12 10:52:00;;;;;;;0.80;0.40;;;29.40;48.00;;;;;;5057392;28;20043;-77
2021/08/12 10:54:26;;;;;;;0.73;0.40;;;29.20;48.90;;;;;;5057451;28;20032;-76
2021/08/12 10:57:12;;;;;;;1.02;0.60;;;28.90;47.80;;;;;;5057409;28;20075;-76
2021/08/12 10:59:38;;;;;;;1.00;0.60;;;28.80;47.40;;;;;;5057133;28;20036;-76
2021/08/12 11:02:29;;;;;;;0.85;0.55;;;28.70;50.20;;;;;;5057215;28;20033;-76
2021/08/12 11:05:00;;;;;;;0.75;0.40;;;28.40;49.70;;;;;;5057458;28;20108;-76
2021/08/12 11:07:38;;;;;;;0.70;0.50;;;28.30;51.20;;;;;;5063286;28;20033;-76
2021/08/12 11:10:10;;;;;;;0.70;0.47;;;28.10;49.70;;;;;;5077187;28;20035;-77
2021/08/12 11:12:57;;;;;;;0.55;0.40;;;28.10;48.30;;;;;;5077005;28;20048;-76
2021/08/12 11:15:41;;;;;;;1.20;0.70;;;28.20;51.80;;;;;;5074053;28;20450;-76
2021/08/12 11:18:08;;;;;;;1.10;0.60;;;28.20;52.90;;;;;;5056910;28;20024;-76
2021/08/12 11:20:45;;;;;;;0.85;0.50;;;28.00;50.20;;;;;;5056613;28;20025;-76
2021/08/12 11:23:20;;;;;;;1.45;0.50;;;28.00;50.20;;;;;;5057333;28;20024;-76
2021/08/12 11:26:00;;;;;;;0.80;0.50;;;28.10;49.30;;;;;;5056906;28;20057;-76
2021/08/12 11:28:38;;;;;;;0.75;0.40;;;28.30;48.30;;;;;;5056683;28;20029;-77
2021/08/12 11:31:05;;;;;;;1.73;0.70;;;28.30;49.70;;;;;;5056764;28;20029;-76
2021/08/12 11:33:32;;;;;;;1.08;0.50;;;28.10;48.00;;;;;;5073621;28;20090;-76
2021/08/12 11:36:16;;;;;;;0.93;0.60;;;28.10;48.70;;;;;;5076920;28;20517;-76
2021/08/12 11:38:45;;;;;;;0.60;0.40;;;28.00;50.10;;;;;;5072409;28;20045;-76
2021/08/12 11:41:11;;;;;;;1.27;0.60;;;28.10;50.50;;;;;;5067235;28;20028;-76
2021/08/12 11:43:39;;;;;;;0.90;0.40;;;28.20;49.50;;;;;;5065654;28;20049;-76
2021/08/12 11:46:07;;;;;;;0.98;0.47;;;28.30;49.40;;;;;;5056446;28;20037;-76
2021/08/12 11:48:35;;;;;;;0.93;0.50;;;28.50;49.50;;;;;;5056405;28;20522;-76
2021/08/12 11:51:02;;;;;;;0.70;0.50;;;28.60;50.00;;;;;;5056516;28;20082;-76
2021/08/12 11:53:38;;;;;;;1.38;0.50;;;28.70;49.20;;;;;;5068660;28;20108;-76
2021/08/12 11:56:23;;;;;;;1.00;0.60;;;28.70;49.80;;;;;;5076290;28;20025;-76
2021/08/12 11:58:51;;;;;;;0.70;0.50;;;28.80;48.80;;;;;;5057507;28;20021;-76
2021/08/12 12:01:23;;;;;;;0.88;0.60;;;28.80;48.30;;;;;;5056207;28;20085;-76
2021/08/12 12:03:56;;;;;;;0.93;0.50;;;28.90;49.20;;;;;;5055852;28;20487;-76
2021/08/12 12:06:33;;;;;;;0.85;0.60;;;29.00;50.60;;;;;;5056070;28;20017;-77
2021/08/12 12:09:27;;;;;;;1.42;0.60;;;29.00;47.60;;;;;;5056072;28;20052;-76
2021/08/12 12:12:00;;;;;;;1.20;0.77;;;29.10;48.10;;;;;;5054780;28;20037;-77
2021/08/12 12:14:28;;;;;;;0.70;0.47;;;29.20;48.60;;;;;;5055794;28;20025;-76
2021/08/12 12:17:09;;;;;;;1.17;0.60;;;29.30;48.40;;;;;;5055790;28;20028;-76
2021/08/12 12:19:36;;;;;;;0.98;0.60;;;29.20;45.90;;;;;;5055703;28;20115;-76
2021/08/12 12:22:11;;;;;;;0.70;0.50;;;29.00;46.80;;;;;;5055822;28;20495;-76
2021/08/12 12:24:45;;;;;;;0.82;0.50;;;28.90;47.60;;;;;;5055875;28;20028;-76
2021/08/12 12:27:11;;;;;;;0.88;0.50;;;28.90;47.60;;;;;;5055828;28;20044;-76
2021/08/12 12:29:37;;;;;;;0.82;0.43;;;28.80;48.30;;;;;;5055845;28;20027;-76
2021/08/12 12:32:03;;;;;;;0.75;0.50;;;28.70;48.50;;;;;;5055069;28;20040;-76
2021/08/12 12:34:51;;;;;;;0.88;0.60;;;28.70;49.40;;;;;;5055070;28;20021;-77
2021/08/12 12:37:18;;;;;;;0.70;0.45;;;28.80;50.20;;;;;;5055730;28;20411;-77
2021/08/12 12:39:44;;;;;;;0.77;0.50;;;28.80;50.00;;;;;;5055476;28;20079;-76
2021/08/12 12:42:10;;;;;;;0.90;0.50;;;28.80;52.20;;;;;;5073938;28;20024;-76
2021/08/12 12:44:35;;;;;;;0.68;0.55;;;28.80;46.90;;;;;;5075573;28;20043;-76
2021/08/12 12:47:28;;;;;;;0.88;0.55;;;28.90;48.70;;;;;;5062377;28;20071;-76
2021/08/12 12:50:15;;;;;;;0.75;0.50;;;28.80;48.30;;;;;;5055503;28;20039;-76
2021/08/12 12:53:00;;;;;;;0.60;0.40;;;28.60;48.00;;;;;;5055371;28;20017;-77
2021/08/12 12:55:52;;;;;;;1.27;0.75;;;28.60;48.30;;;;;;5055252;28;20082;-77
2021/08/12 12:58:25;;;;;;;0.80;0.50;;;28.70;47.60;;;;;;5054010;28;20056;-76